createdAt,value
2023-02-22T00:01:01.361Z,4.25
2023-02-22T00:02:04.285Z,4.26
2023-02-22T00:03:08.536Z,4.29
2023-02-22T00:04:12.640Z,4.31
2023-02-22T00:05:16.776Z,4.34
2023-02-22T00:06:20.971Z,4.37
2023-02-22T00:07:25.152Z,4.38
2023-02-22T00:08:29.374Z,4.39
2023-02-22T00:09:33.444Z,4.40
2023-02-22T00:10:37.742Z,4.41
2023-02-22T00:11:47.871Z,4.41
2023-02-22T00:12:50.600Z,4.42
2023-02-22T00:13:54.880Z,4.42
2023-02-22T00:14:59.017Z,4.43
2023-02-22T00:16:03.280Z,4.43
2023-02-22T00:17:07.397Z,4.41
2023-02-22T00:18:11.594Z,4.38
2023-02-22T00:19:15.816Z,4.28
2023-02-22T00:20:19.963Z,4.15
2023-02-22T00:21:24.143Z,4.02
2023-02-22T00:22:34.500Z,3.90
2023-02-22T00:23:37.148Z,3.76
2023-02-22T00:24:41.370Z,3.62
2023-02-22T00:25:45.531Z,3.54
2023-02-22T00:26:49.709Z,3.51
2023-02-22T00:27:53.908Z,3.51
2023-02-22T00:28:58.072Z,3.54
2023-02-22T00:30:02.245Z,3.60
2023-02-22T00:31:06.421Z,3.65
2023-02-22T00:32:10.702Z,3.71
2023-02-22T00:33:14.862Z,3.76
2023-02-22T00:34:19.162Z,3.80
2023-02-22T00:35:23.265Z,3.76
2023-02-22T00:36:27.459Z,3.69
2023-02-22T00:37:31.685Z,3.62
2023-02-22T00:38:36.017Z,3.60
2023-02-22T00:39:40.127Z,3.60
2023-02-22T00:40:44.215Z,3.62
2023-02-22T00:41:48.503Z,3.67
2023-02-22T00:42:52.669Z,3.71
2023-02-22T00:43:56.782Z,3.77
2023-02-22T00:45:00.984Z,3.81
2023-02-22T00:46:05.245Z,3.85
2023-02-22T00:47:09.399Z,3.89
2023-02-22T00:48:13.625Z,3.92
2023-02-22T00:49:17.791Z,3.95
2023-02-22T00:50:22.018Z,3.95
2023-02-22T00:51:26.193Z,3.86
2023-02-22T00:52:30.393Z,3.74
2023-02-22T00:53:34.729Z,3.65
2023-02-22T00:54:38.852Z,3.61
2023-02-22T00:55:43.026Z,3.56
2023-02-22T00:56:47.226Z,3.50
2023-02-22T00:57:51.500Z,3.42
2023-02-22T00:58:55.649Z,3.35
2023-02-22T00:59:59.811Z,3.34
2023-02-22T01:01:10.091Z,3.33
2023-02-22T01:02:12.802Z,3.34
2023-02-22T01:03:16.908Z,3.36
2023-02-22T01:04:21.059Z,3.39
2023-02-22T01:05:25.265Z,3.41
2023-02-22T01:06:29.468Z,3.45
2023-02-22T01:07:33.629Z,3.49
2023-02-22T01:08:37.842Z,3.53
2023-02-22T01:09:42.002Z,3.57
2023-02-22T01:10:46.182Z,3.60
2023-02-22T01:11:50.450Z,3.65
2023-02-22T01:12:54.631Z,3.70
2023-02-22T01:13:58.835Z,3.74
2023-02-22T01:15:03.035Z,3.78
2023-02-22T01:16:07.231Z,3.79
2023-02-22T01:17:11.395Z,3.77
2023-02-22T01:18:15.614Z,3.73
2023-02-22T01:19:19.766Z,3.69
2023-02-22T01:20:23.973Z,3.68
2023-02-22T01:21:28.283Z,3.67
2023-02-22T01:22:32.420Z,3.68
2023-02-22T01:23:36.712Z,3.69
2023-02-22T01:24:40.838Z,3.68
2023-02-22T01:25:45.014Z,3.59
2023-02-22T01:26:49.240Z,3.47
2023-02-22T01:27:53.435Z,3.34
2023-02-22T01:28:57.664Z,3.19
2023-02-22T01:30:01.917Z,3.08
2023-02-22T01:31:06.115Z,3.00
2023-02-22T01:32:10.266Z,2.94
2023-02-22T01:33:14.382Z,2.88
2023-02-22T01:34:18.564Z,2.84
2023-02-22T01:35:22.664Z,2.82
2023-02-22T01:36:26.946Z,2.83
2023-02-22T01:37:31.110Z,2.85
2023-02-22T01:38:35.424Z,2.88
2023-02-22T01:39:39.483Z,2.92
2023-02-22T01:40:43.658Z,2.94
2023-02-22T01:41:47.927Z,2.97
2023-02-22T01:42:52.053Z,2.99
2023-02-22T01:43:56.239Z,3.03
2023-02-22T01:45:00.328Z,3.06
2023-02-22T01:46:04.569Z,3.08
2023-02-22T01:47:08.726Z,3.10
2023-02-22T01:48:12.927Z,3.11
2023-02-22T01:49:17.124Z,3.13
2023-02-22T01:50:21.345Z,3.15
2023-02-22T01:51:25.506Z,3.15
2023-02-22T01:52:29.658Z,3.15
2023-02-22T01:53:33.881Z,3.13
2023-02-22T01:54:38.047Z,3.13
2023-02-22T01:55:42.228Z,3.11
2023-02-22T01:58:13.434Z,3.08
2023-02-22T01:59:17.522Z,3.01
2023-02-22T02:00:21.727Z,2.92
2023-02-22T02:01:25.922Z,2.85
2023-02-22T02:02:30.111Z,2.77
2023-02-22T02:03:34.366Z,2.71
2023-02-22T02:04:38.516Z,2.68
2023-02-22T02:05:42.463Z,2.68
2023-02-22T02:06:46.650Z,2.71
2023-02-22T02:07:50.846Z,2.74
2023-02-22T02:08:55.044Z,2.76
2023-02-22T02:09:59.196Z,2.81
2023-02-22T02:11:03.368Z,2.86
2023-02-22T02:12:07.539Z,2.90
2023-02-22T02:13:11.646Z,2.92
2023-02-22T02:14:15.831Z,2.92
2023-02-22T02:15:20.018Z,2.94
2023-02-22T02:16:24.357Z,2.94
2023-02-22T02:17:28.411Z,2.94
2023-02-22T02:18:32.634Z,2.94
2023-02-22T02:19:36.782Z,2.95
2023-02-22T02:20:40.926Z,2.95
2023-02-22T02:21:45.100Z,2.95
2023-02-22T02:22:49.277Z,2.98
2023-02-22T02:23:53.473Z,2.99
2023-02-22T02:24:57.718Z,3.02
2023-02-22T02:26:01.992Z,3.05
2023-02-22T02:27:06.211Z,3.07
2023-02-22T02:28:10.341Z,3.07
2023-02-22T02:29:14.515Z,3.10
2023-02-22T02:30:21.757Z,3.08
2023-02-22T02:31:25.036Z,3.06
2023-02-22T02:32:29.177Z,3.04
2023-02-22T02:33:33.335Z,3.02
2023-02-22T02:34:37.503Z,2.99
2023-02-22T02:35:41.711Z,2.98
2023-02-22T02:36:45.884Z,2.95
2023-02-22T02:37:50.131Z,2.96
2023-02-22T02:38:54.287Z,2.95
2023-02-22T02:39:58.421Z,2.94
2023-02-22T02:41:02.585Z,2.93
2023-02-22T02:42:06.756Z,2.93
2023-02-22T02:43:10.937Z,2.91
2023-02-22T02:44:15.143Z,2.90
2023-02-22T02:45:19.344Z,2.87
2023-02-22T02:46:23.477Z,2.85
2023-02-22T02:47:27.712Z,2.82
2023-02-22T02:48:31.888Z,2.74
2023-02-22T02:49:36.081Z,2.68
2023-02-22T02:50:40.237Z,2.63
2023-02-22T02:51:44.295Z,2.60
2023-02-22T02:52:48.653Z,2.59
2023-02-22T02:53:52.870Z,2.58
2023-02-22T02:54:57.000Z,2.56
2023-02-22T02:56:01.162Z,2.55
2023-02-22T02:57:05.336Z,2.54
2023-02-22T02:58:09.517Z,2.54
2023-02-22T02:59:13.764Z,2.55
2023-02-22T03:00:17.914Z,2.55
2023-02-22T03:01:22.102Z,2.56
2023-02-22T03:02:26.202Z,2.55
2023-02-22T03:03:30.364Z,2.54
2023-02-22T03:04:34.629Z,2.50
2023-02-22T03:05:38.712Z,2.45
2023-02-22T03:06:42.844Z,2.42
2023-02-22T03:07:47.026Z,2.41
2023-02-22T03:08:51.270Z,2.43
2023-02-22T03:09:55.453Z,2.44
2023-02-22T03:10:59.719Z,2.44
2023-02-22T03:12:03.769Z,2.47
2023-02-22T03:13:08.032Z,2.49
2023-02-22T03:14:12.225Z,2.51
2023-02-22T03:15:16.451Z,2.53
2023-02-22T03:16:20.621Z,2.53
2023-02-22T03:17:24.766Z,2.56
2023-02-22T03:18:29.054Z,2.58
2023-02-22T03:19:33.127Z,2.57
2023-02-22T03:20:37.321Z,2.58
2023-02-22T03:21:41.518Z,2.58
2023-02-22T03:22:45.690Z,2.59
2023-02-22T03:23:49.954Z,2.59
2023-02-22T03:24:54.114Z,2.59
2023-02-22T03:25:58.283Z,2.59
2023-02-22T03:27:02.565Z,2.58
2023-02-22T03:28:06.614Z,2.56
2023-02-22T03:29:10.894Z,2.52
2023-02-22T03:30:15.056Z,2.43
2023-02-22T03:31:19.563Z,2.33
2023-02-22T03:32:23.377Z,2.26
2023-02-22T03:33:27.579Z,2.23
2023-02-22T03:34:31.676Z,2.24
2023-02-22T03:35:35.864Z,2.27
2023-02-22T03:36:40.025Z,2.31
2023-02-22T03:37:44.200Z,2.34
2023-02-22T03:39:02.444Z,2.37
2023-02-22T03:40:05.360Z,2.42
2023-02-22T03:41:09.365Z,2.45
2023-02-22T03:42:13.459Z,2.46
2023-02-22T03:43:17.591Z,2.40
2023-02-22T03:44:21.872Z,2.35
2023-02-22T03:45:25.889Z,2.32
2023-02-22T03:46:30.322Z,2.31
2023-02-22T03:47:34.328Z,2.31
2023-02-22T03:48:38.449Z,2.33
2023-02-22T03:49:42.593Z,2.35
2023-02-22T03:50:46.972Z,2.37
2023-02-22T03:51:51.062Z,2.38
2023-02-22T03:52:55.173Z,2.37
2023-02-22T03:53:59.345Z,2.36
2023-02-22T03:55:03.542Z,2.34
2023-02-22T03:56:07.752Z,2.31
2023-02-22T03:57:26.008Z,2.30
2023-02-22T03:58:28.862Z,2.30
2023-02-22T03:59:32.996Z,2.32
2023-02-22T04:00:37.122Z,2.33
2023-02-22T04:01:41.372Z,2.34
2023-02-22T04:02:45.462Z,2.34
2023-02-22T04:03:49.645Z,2.34
2023-02-22T04:04:53.805Z,2.36
2023-02-22T04:05:59.406Z,2.38
2023-02-22T04:07:03.063Z,2.38
2023-02-22T04:08:07.320Z,2.32
2023-02-22T04:09:11.614Z,2.21
2023-02-22T04:10:15.778Z,2.08
2023-02-22T04:11:19.976Z,1.95
2023-02-22T04:12:24.133Z,1.89
2023-02-22T04:13:28.267Z,1.86
2023-02-22T04:14:32.457Z,1.87
2023-02-22T04:15:36.530Z,1.89
2023-02-22T04:16:40.724Z,1.93
2023-02-22T04:17:44.964Z,1.96
2023-02-22T04:18:49.104Z,2.01
2023-02-22T04:19:53.157Z,2.05
2023-02-22T04:20:57.409Z,2.09
2023-02-22T04:22:01.538Z,2.12
2023-02-22T04:23:05.701Z,2.15
2023-02-22T04:24:09.826Z,2.17
2023-02-22T04:25:14.060Z,2.17
2023-02-22T04:26:18.202Z,2.16
2023-02-22T04:27:22.411Z,2.11
2023-02-22T04:28:26.668Z,2.05
2023-02-22T04:29:30.934Z,1.95
2023-02-22T04:30:35.093Z,1.85
2023-02-22T04:31:39.422Z,1.77
2023-02-22T04:32:43.423Z,1.69
2023-02-22T04:33:47.539Z,1.62
2023-02-22T04:34:51.696Z,1.59
2023-02-22T04:35:55.832Z,1.58
2023-02-22T04:37:00.109Z,1.62
2023-02-22T04:38:04.186Z,1.66
2023-02-22T04:39:08.481Z,1.72
2023-02-22T04:40:12.732Z,1.77
2023-02-22T04:41:17.120Z,1.79
2023-02-22T04:42:21.072Z,1.78
2023-02-22T04:43:28.200Z,1.76
2023-02-22T04:44:31.384Z,1.75
2023-02-22T04:45:35.571Z,1.73
2023-02-22T04:46:39.645Z,1.69
2023-02-22T04:47:43.987Z,1.65
2023-02-22T04:48:48.025Z,1.61
2023-02-22T04:49:52.293Z,1.58
2023-02-22T04:51:02.442Z,1.58
2023-02-22T04:52:05.213Z,1.61
2023-02-22T04:53:09.191Z,1.66
2023-02-22T04:54:13.382Z,1.72
2023-02-22T04:55:17.552Z,1.79
2023-02-22T04:56:21.760Z,1.84
2023-02-22T04:57:25.798Z,1.89
2023-02-22T04:58:29.999Z,1.93
2023-02-22T04:59:34.264Z,1.97
2023-02-22T05:00:38.296Z,2.00
2023-02-22T05:01:42.528Z,1.98
2023-02-22T05:02:46.816Z,1.95
2023-02-22T05:03:50.852Z,1.87
2023-02-22T05:04:55.081Z,1.79
2023-02-22T05:05:59.174Z,1.70
2023-02-22T05:07:03.360Z,1.62
2023-02-22T05:08:07.510Z,1.56
2023-02-22T05:09:11.837Z,1.48
2023-02-22T05:10:15.907Z,1.42
2023-02-22T05:11:20.009Z,1.38
2023-02-22T05:12:24.156Z,1.35
2023-02-22T05:13:28.280Z,1.34
2023-02-22T05:14:32.480Z,1.32
2023-02-22T05:15:36.667Z,1.30
2023-02-22T05:16:40.823Z,1.31
2023-02-22T05:17:45.023Z,1.29
2023-02-22T05:18:49.138Z,1.28
2023-02-22T05:19:53.298Z,1.27
2023-02-22T05:20:57.296Z,1.25
2023-02-22T05:22:01.429Z,1.23
2023-02-22T05:23:05.624Z,1.20
2023-02-22T05:24:09.638Z,1.18
2023-02-22T05:25:13.824Z,1.17
2023-02-22T05:26:17.956Z,1.19
2023-02-22T05:27:22.107Z,1.19
2023-02-22T05:28:26.213Z,1.20
2023-02-22T05:29:30.357Z,1.23
2023-02-22T05:30:34.602Z,1.26
2023-02-22T05:31:38.621Z,1.30
2023-02-22T05:32:42.590Z,1.35
2023-02-22T05:33:46.726Z,1.43
2023-02-22T05:34:50.955Z,1.50
2023-02-22T05:35:55.250Z,1.54
2023-02-22T05:36:59.302Z,1.56
2023-02-22T05:38:03.470Z,1.56
2023-02-22T05:39:07.597Z,1.54
2023-02-22T05:40:11.742Z,1.50
2023-02-22T05:41:16.303Z,1.47
2023-02-22T05:42:19.959Z,1.43
2023-02-22T05:43:24.182Z,1.40
2023-02-22T05:44:28.324Z,1.38
2023-02-22T05:45:32.544Z,1.37
2023-02-22T05:46:36.641Z,1.38
2023-02-22T05:47:40.778Z,1.39
2023-02-22T05:48:44.926Z,1.39
2023-02-22T05:49:52.032Z,1.41
2023-02-22T05:50:55.222Z,1.43
2023-02-22T05:51:59.276Z,1.47
2023-02-22T05:53:03.443Z,1.52
2023-02-22T05:54:07.735Z,1.57
2023-02-22T05:55:11.717Z,1.62
2023-02-22T05:56:15.904Z,1.67
2023-02-22T05:57:20.041Z,1.70
2023-02-22T05:58:24.193Z,1.72
2023-02-22T05:59:28.211Z,1.70
2023-02-22T06:00:32.321Z,1.66
2023-02-22T06:01:36.539Z,1.57
2023-02-22T06:02:40.622Z,1.53
2023-02-22T06:03:44.798Z,1.48
2023-02-22T06:04:48.913Z,1.48
2023-02-22T06:05:52.939Z,1.49
2023-02-22T06:06:56.984Z,1.51
2023-02-22T06:08:01.225Z,1.53
2023-02-22T06:09:05.339Z,1.52
2023-02-22T06:10:09.372Z,1.47
2023-02-22T06:11:13.524Z,1.45
2023-02-22T06:12:17.630Z,1.44
2023-02-22T06:13:21.735Z,1.46
2023-02-22T06:14:25.889Z,1.48
2023-02-22T06:15:30.060Z,1.52
2023-02-22T06:16:34.189Z,1.55
2023-02-22T06:17:38.215Z,1.56
2023-02-22T06:18:42.389Z,1.58
2023-02-22T06:19:46.587Z,1.64
2023-02-22T06:20:50.893Z,1.68
2023-02-22T06:21:54.930Z,1.71
2023-02-22T06:22:59.108Z,1.74
2023-02-22T06:24:03.290Z,1.75
2023-02-22T06:25:21.440Z,1.77
2023-02-22T06:26:24.204Z,1.75
2023-02-22T06:27:28.198Z,1.74
2023-02-22T06:28:32.261Z,1.74
2023-02-22T06:29:36.478Z,1.74
2023-02-22T06:30:40.694Z,1.76
2023-02-22T06:31:44.842Z,1.78
2023-02-22T06:32:48.904Z,1.84
2023-02-22T06:33:52.938Z,1.90
2023-02-22T06:34:57.174Z,1.98
2023-02-22T06:37:28.120Z,2.17
2023-02-22T06:38:32.108Z,2.26
2023-02-22T06:39:36.342Z,2.30
2023-02-22T06:40:40.497Z,2.29
2023-02-22T06:41:44.649Z,2.26
2023-02-22T06:42:48.829Z,2.26
2023-02-22T06:43:52.965Z,2.28
2023-02-22T06:44:57.043Z,2.31
2023-02-22T06:46:01.277Z,2.29
2023-02-22T06:47:05.383Z,2.28
2023-02-22T06:48:09.538Z,2.25
2023-02-22T06:49:13.718Z,2.27
2023-02-22T06:50:17.946Z,2.29
2023-02-22T06:51:21.985Z,2.34
2023-02-22T06:52:26.114Z,2.41
2023-02-22T06:53:30.307Z,2.46
2023-02-22T06:54:34.412Z,2.52
2023-02-22T06:55:38.667Z,2.59
2023-02-22T06:56:42.728Z,2.64
2023-02-22T06:57:46.925Z,2.69
2023-02-22T06:58:51.106Z,2.73
2023-02-22T06:59:55.257Z,2.73
2023-02-22T07:00:59.335Z,2.72
2023-02-22T07:02:03.548Z,2.69
2023-02-22T07:03:07.733Z,2.70
2023-02-22T07:04:11.859Z,2.71
2023-02-22T07:05:16.117Z,2.74
2023-02-22T07:06:20.225Z,2.76
2023-02-22T07:07:24.378Z,2.80
2023-02-22T07:08:28.530Z,2.82
2023-02-22T07:09:32.637Z,2.85
2023-02-22T07:10:36.855Z,2.84
2023-02-22T07:11:41.005Z,2.83
2023-02-22T07:12:45.143Z,2.82
2023-02-22T07:13:49.320Z,2.83
2023-02-22T07:15:07.680Z,2.83
2023-02-22T07:16:10.571Z,2.83
2023-02-22T07:17:14.547Z,2.84
2023-02-22T07:18:18.704Z,2.87
2023-02-22T07:19:22.816Z,2.90
2023-02-22T07:20:26.960Z,2.94
2023-02-22T07:21:31.154Z,2.98
2023-02-22T07:22:35.315Z,2.99
2023-02-22T07:23:39.401Z,3.01
2023-02-22T07:24:43.701Z,3.03
2023-02-22T07:25:47.888Z,3.01
2023-02-22T07:26:51.994Z,3.02
2023-02-22T07:27:56.090Z,3.03
2023-02-22T07:29:00.200Z,3.06
2023-02-22T07:30:04.390Z,3.08
2023-02-22T07:31:08.581Z,3.11
2023-02-22T07:32:24.796Z,3.16
2023-02-22T07:33:26.945Z,3.21
2023-02-22T07:34:31.075Z,3.25
2023-02-22T07:35:35.231Z,3.29
2023-02-22T07:36:39.465Z,3.32
2023-02-22T07:37:43.564Z,3.33
2023-02-22T07:38:48.086Z,3.34
2023-02-22T07:39:52.094Z,3.35
2023-02-22T07:42:23.343Z,3.36
2023-02-22T07:43:27.408Z,3.38
2023-02-22T07:44:31.544Z,3.41
2023-02-22T07:45:35.832Z,3.44
2023-02-22T07:46:39.805Z,3.46
2023-02-22T07:47:44.002Z,3.48
2023-02-22T07:49:02.328Z,3.49
2023-02-22T07:50:05.219Z,3.51
2023-02-22T07:51:09.281Z,3.54
2023-02-22T07:52:13.416Z,3.57
2023-02-22T07:53:17.695Z,3.59
2023-02-22T07:54:21.832Z,3.62
2023-02-22T07:55:26.018Z,3.64
2023-02-22T07:56:30.200Z,3.66
2023-02-22T07:57:34.408Z,3.68
2023-02-22T07:58:38.533Z,3.69
2023-02-22T07:59:42.713Z,3.70
2023-02-22T08:00:47.000Z,3.72
2023-02-22T08:01:51.126Z,3.74
2023-02-22T08:02:55.319Z,3.76
2023-02-22T08:03:59.566Z,3.78
2023-02-22T08:05:03.676Z,3.81
2023-02-22T08:06:08.075Z,3.83
2023-02-22T08:07:12.142Z,3.86
2023-02-22T08:08:19.415Z,3.89
2023-02-22T08:09:20.568Z,3.92
2023-02-22T08:10:24.766Z,3.95
2023-02-22T08:11:28.996Z,3.99
2023-02-22T08:12:33.178Z,4.02
2023-02-22T08:13:37.436Z,4.06
2023-02-22T08:14:41.519Z,4.10
2023-02-22T08:15:45.729Z,4.14
2023-02-22T08:16:49.900Z,4.17
2023-02-22T08:17:53.951Z,4.21
2023-02-22T08:18:58.167Z,4.24
2023-02-22T08:20:02.362Z,4.26
2023-02-22T08:21:06.527Z,4.30
2023-02-22T08:22:10.706Z,4.32
2023-02-22T08:23:14.882Z,4.34
2023-02-22T08:24:19.021Z,4.37
2023-02-22T08:25:23.261Z,4.39
2023-02-22T08:26:27.485Z,4.42
2023-02-22T08:27:31.636Z,4.45
2023-02-22T08:28:35.863Z,4.49
2023-02-22T08:29:40.047Z,4.52
2023-02-22T08:30:44.323Z,4.55
2023-02-22T08:31:48.657Z,4.58
2023-02-22T08:34:19.829Z,4.66
2023-02-22T08:35:23.868Z,4.71
2023-02-22T08:36:28.092Z,4.76
2023-02-22T08:37:32.267Z,4.78
2023-02-22T08:38:36.473Z,4.82
2023-02-22T08:39:40.646Z,4.85
2023-02-22T08:40:44.843Z,4.89
2023-02-22T08:41:48.999Z,4.92
2023-02-22T08:42:53.205Z,4.96
2023-02-22T08:43:57.418Z,5.00
2023-02-22T08:45:07.733Z,5.03
2023-02-22T08:46:10.378Z,5.07
2023-02-22T08:47:14.454Z,5.11
2023-02-22T08:48:18.716Z,5.15
2023-02-22T08:49:22.834Z,5.20
2023-02-22T08:50:27.068Z,5.24
2023-02-22T08:51:31.349Z,5.28
2023-02-22T08:52:35.622Z,5.32
2023-02-22T08:53:39.795Z,5.37
2023-02-22T08:54:44.008Z,5.41
2023-02-22T08:55:48.133Z,5.47
2023-02-22T08:56:52.278Z,5.52
2023-02-22T08:57:56.555Z,5.58
2023-02-22T08:59:00.761Z,5.62
2023-02-22T09:00:05.104Z,5.67
2023-02-22T09:01:09.291Z,5.72
2023-02-22T09:02:13.393Z,5.77
2023-02-22T09:03:17.683Z,5.83
2023-02-22T09:04:21.705Z,5.89
2023-02-22T09:05:25.981Z,5.95
2023-02-22T09:06:30.326Z,6.00
2023-02-22T09:07:34.351Z,6.05
2023-02-22T09:08:41.636Z,6.10
2023-02-22T09:09:44.916Z,6.15
2023-02-22T09:10:49.068Z,6.19
2023-02-22T09:11:53.429Z,6.23
2023-02-22T09:12:57.462Z,6.27
2023-02-22T09:14:01.695Z,6.31
2023-02-22T09:15:05.831Z,6.36
2023-02-22T09:16:10.139Z,6.40
2023-02-22T09:17:28.314Z,6.44
2023-02-22T09:18:43.475Z,6.50
2023-02-22T09:19:35.495Z,6.54
2023-02-22T09:20:39.700Z,6.59
2023-02-22T09:21:43.952Z,6.63
2023-02-22T09:22:48.157Z,6.67
2023-02-22T09:23:52.352Z,6.71
2023-02-22T09:24:58.496Z,6.75
2023-02-22T09:26:00.815Z,6.78
2023-02-22T09:27:05.099Z,6.82
2023-02-22T09:28:09.268Z,6.86
2023-02-22T09:29:13.521Z,6.90
2023-02-22T09:30:17.778Z,6.94
2023-02-22T09:31:22.583Z,6.98
2023-02-22T09:32:26.413Z,7.02
2023-02-22T09:33:30.455Z,7.05
2023-02-22T09:34:34.492Z,7.10
2023-02-22T09:35:38.668Z,7.14
2023-02-22T09:36:42.934Z,7.19
2023-02-22T09:38:01.216Z,7.24
2023-02-22T09:39:04.360Z,7.30
2023-02-22T09:40:08.529Z,7.35
2023-02-22T09:41:12.816Z,7.40
2023-02-22T09:42:16.976Z,7.45
2023-02-22T09:43:21.290Z,7.50
2023-02-22T09:44:26.394Z,7.54
2023-02-22T09:45:30.304Z,7.59
2023-02-22T09:46:34.382Z,7.63
2023-02-22T09:47:38.733Z,7.66
2023-02-22T09:48:43.095Z,7.68
2023-02-22T09:49:47.127Z,7.72
2023-02-22T09:50:51.415Z,7.75
2023-02-22T09:51:55.524Z,7.78
2023-02-22T09:52:59.811Z,7.81
2023-02-22T09:54:04.042Z,7.83
2023-02-22T09:55:08.255Z,7.85
2023-02-22T09:56:12.487Z,7.87
2023-02-22T09:57:16.699Z,7.90
2023-02-22T09:58:20.912Z,7.92
2023-02-22T09:59:25.123Z,7.94
2023-02-22T10:00:29.332Z,7.94
2023-02-22T10:01:33.561Z,7.91
2023-02-22T10:02:37.770Z,7.93
2023-02-22T10:03:42.058Z,7.96
2023-02-22T10:04:46.253Z,7.98
2023-02-22T10:05:50.445Z,8.01
2023-02-22T10:06:54.660Z,8.01
2023-02-22T10:07:58.890Z,8.00
2023-02-22T10:09:03.090Z,8.01
2023-02-22T10:10:07.276Z,7.93
2023-02-22T10:11:11.568Z,7.95
2023-02-22T10:12:15.755Z,7.96
2023-02-22T10:13:19.960Z,7.91
2023-02-22T10:14:24.228Z,7.89
2023-02-22T10:15:31.478Z,7.90
2023-02-22T10:16:34.779Z,7.94
2023-02-22T10:17:39.072Z,7.93
2023-02-22T10:18:43.198Z,7.95
2023-02-22T10:19:47.418Z,7.97
2023-02-22T10:20:51.639Z,7.98
2023-02-22T10:21:55.813Z,7.92
2023-02-22T10:23:00.039Z,7.90
2023-02-22T10:24:04.303Z,7.93
2023-02-22T10:25:09.715Z,7.95
2023-02-22T10:26:26.822Z,7.98
2023-02-22T10:27:29.801Z,7.97
2023-02-22T10:28:33.939Z,7.99
2023-02-22T10:29:38.153Z,8.02
2023-02-22T10:30:42.474Z,8.07
2023-02-22T10:31:46.732Z,8.11
2023-02-22T10:32:50.767Z,8.14
2023-02-22T10:33:55.004Z,8.21
2023-02-22T10:34:59.206Z,8.26
2023-02-22T10:36:03.584Z,8.23
2023-02-22T10:37:07.776Z,8.27
2023-02-22T10:38:11.980Z,8.24
2023-02-22T10:39:16.243Z,8.24
2023-02-22T10:40:20.423Z,8.26
2023-02-22T10:41:24.691Z,8.13
2023-02-22T10:42:28.914Z,8.10
2023-02-22T10:43:33.136Z,8.09
2023-02-22T10:44:37.349Z,8.12
2023-02-22T10:45:41.647Z,8.15
2023-02-22T10:46:45.812Z,8.15
2023-02-22T10:47:50.116Z,8.19
2023-02-22T10:48:54.305Z,8.22
2023-02-22T10:49:58.549Z,8.26
2023-02-22T10:51:02.753Z,8.25
2023-02-22T10:52:07.082Z,8.19
2023-02-22T10:53:14.286Z,8.13
2023-02-22T10:54:17.520Z,8.14
2023-02-22T10:55:21.696Z,8.18
2023-02-22T10:56:25.914Z,8.22
2023-02-22T10:57:30.144Z,8.24
2023-02-22T10:58:34.466Z,8.26
2023-02-22T10:59:38.606Z,8.17
2023-02-22T11:00:42.903Z,8.02
2023-02-22T11:01:47.136Z,7.94
2023-02-22T11:02:51.248Z,7.89
2023-02-22T11:03:55.569Z,7.86
2023-02-22T11:04:59.821Z,7.80
2023-02-22T11:06:06.281Z,7.83
2023-02-22T11:07:08.203Z,7.86
2023-02-22T11:08:12.504Z,7.89
2023-02-22T11:09:16.712Z,7.92
2023-02-22T11:10:35.031Z,7.95
2023-02-22T11:11:38.104Z,7.95
2023-02-22T11:12:48.275Z,7.98
2023-02-22T11:13:51.077Z,8.01
2023-02-22T11:14:55.214Z,8.04
2023-02-22T11:15:59.457Z,8.04
2023-02-22T11:17:03.703Z,8.06
2023-02-22T11:18:08.953Z,8.07
2023-02-22T11:19:12.104Z,8.05
2023-02-22T11:20:16.427Z,8.01
2023-02-22T11:21:20.614Z,7.95
2023-02-22T11:22:24.726Z,7.96
2023-02-22T11:23:29.027Z,8.01
2023-02-22T11:24:47.439Z,8.02
2023-02-22T11:25:37.504Z,8.03
2023-02-22T11:26:41.704Z,8.10
2023-02-22T11:27:45.920Z,8.17
2023-02-22T11:28:50.201Z,8.25
2023-02-22T11:29:54.395Z,8.32
2023-02-22T11:30:58.741Z,8.35
2023-02-22T11:32:02.956Z,8.35
2023-02-22T11:33:07.104Z,8.38
2023-02-22T11:34:11.321Z,8.38
2023-02-22T11:35:15.537Z,8.34
2023-02-22T11:36:19.780Z,8.35
2023-02-22T11:37:24.016Z,8.40
2023-02-22T11:38:28.297Z,8.42
2023-02-22T11:39:32.544Z,8.42
2023-02-22T11:40:36.733Z,8.48
2023-02-22T11:41:40.994Z,8.51
2023-02-22T11:42:45.223Z,8.50
2023-02-22T11:43:49.511Z,8.52
2023-02-22T11:44:53.820Z,8.51
2023-02-22T11:45:59.492Z,8.55
2023-02-22T11:47:02.337Z,8.61
2023-02-22T11:48:06.639Z,8.66
2023-02-22T11:49:10.952Z,8.57
2023-02-22T11:50:15.286Z,8.56
2023-02-22T11:51:19.781Z,8.46
2023-02-22T11:52:25.057Z,8.47
2023-02-22T11:53:27.833Z,8.44
2023-02-22T11:54:32.111Z,8.43
2023-02-22T11:55:43.057Z,8.38
2023-02-22T11:56:41.051Z,8.39
2023-02-22T11:57:44.964Z,8.44
2023-02-22T11:58:49.159Z,8.47
2023-02-22T11:59:53.416Z,8.47
2023-02-22T12:00:57.635Z,8.51
2023-02-22T12:02:01.849Z,8.55
2023-02-22T12:03:06.067Z,8.56
2023-02-22T12:04:10.528Z,8.57
2023-02-22T12:05:14.593Z,8.53
2023-02-22T12:06:19.065Z,8.43
2023-02-22T12:07:23.086Z,8.40
2023-02-22T12:08:27.467Z,8.40
2023-02-22T12:09:31.746Z,8.39
2023-02-22T12:10:35.922Z,8.41
2023-02-22T12:13:07.368Z,8.36
2023-02-22T12:14:11.438Z,8.39
2023-02-22T12:15:15.708Z,8.46
2023-02-22T12:16:20.349Z,8.49
2023-02-22T12:17:24.197Z,8.49
2023-02-22T12:18:28.544Z,8.54
2023-02-22T12:19:32.765Z,8.61
2023-02-22T12:20:36.979Z,8.67
2023-02-22T12:21:41.277Z,8.72
2023-02-22T12:22:45.509Z,8.74
2023-02-22T12:23:49.781Z,8.73
2023-02-22T12:25:03.978Z,8.61
2023-02-22T12:25:58.246Z,8.54
2023-02-22T12:27:04.052Z,8.45
2023-02-22T12:28:19.059Z,8.41
2023-02-22T12:29:13.073Z,8.40
2023-02-22T12:30:17.218Z,8.42
2023-02-22T12:31:21.592Z,8.42
2023-02-22T12:32:25.810Z,8.38
2023-02-22T12:33:46.087Z,8.34
2023-02-22T12:34:49.527Z,8.34
2023-02-22T12:35:53.674Z,8.24
2023-02-22T12:36:57.876Z,8.24
2023-02-22T12:38:02.106Z,8.14
2023-02-22T12:39:07.689Z,8.16
2023-02-22T12:40:10.532Z,8.10
2023-02-22T12:41:15.125Z,8.09
2023-02-22T12:42:19.030Z,8.10
2023-02-22T12:43:23.347Z,8.13
2023-02-22T12:44:30.487Z,8.15
2023-02-22T12:45:33.827Z,8.19
2023-02-22T12:46:38.220Z,8.21
2023-02-22T12:47:42.278Z,8.26
2023-02-22T12:48:46.615Z,8.28
2023-02-22T12:49:50.821Z,8.26
2023-02-22T12:50:55.092Z,8.21
2023-02-22T12:52:01.459Z,8.22
2023-02-22T12:53:03.274Z,8.22
2023-02-22T12:54:07.480Z,8.20
2023-02-22T12:55:11.739Z,8.08
2023-02-22T12:56:15.953Z,8.07
2023-02-22T12:57:20.169Z,8.08
2023-02-22T12:58:24.408Z,8.03
2023-02-22T12:59:28.704Z,8.03
2023-02-22T13:00:32.890Z,8.03
2023-02-22T13:01:37.257Z,8.06
2023-02-22T13:02:41.514Z,8.08
2023-02-22T13:03:45.735Z,8.12
2023-02-22T13:04:49.980Z,8.15
2023-02-22T13:05:54.288Z,8.11
2023-02-22T13:06:58.478Z,8.03
2023-02-22T13:08:02.770Z,7.93
2023-02-22T13:09:07.016Z,7.93
2023-02-22T13:10:11.345Z,7.92
2023-02-22T13:11:15.913Z,7.98
2023-02-22T13:12:19.761Z,8.01
2023-02-22T13:13:24.086Z,8.05
2023-02-22T13:14:28.257Z,8.10
2023-02-22T13:15:32.517Z,8.14
2023-02-22T13:16:36.755Z,8.14
2023-02-22T13:17:40.989Z,8.06
2023-02-22T13:18:45.199Z,8.07
2023-02-22T13:19:49.426Z,8.06
2023-02-22T13:20:53.667Z,8.08
2023-02-22T13:21:57.928Z,8.04
2023-02-22T13:23:02.118Z,8.06
2023-02-22T13:24:06.415Z,8.11
2023-02-22T13:25:10.633Z,8.14
2023-02-22T13:26:15.093Z,8.20
2023-02-22T13:27:19.093Z,8.25
2023-02-22T13:28:23.351Z,8.24
2023-02-22T13:29:41.611Z,8.22
2023-02-22T13:30:44.795Z,8.19
2023-02-22T13:31:49.030Z,8.22
2023-02-22T13:32:53.114Z,8.15
2023-02-22T13:33:57.327Z,8.06
2023-02-22T13:35:04.586Z,8.08
2023-02-22T13:37:35.878Z,8.03
2023-02-22T13:38:39.174Z,8.07
2023-02-22T13:39:57.413Z,8.12
2023-02-22T13:41:00.623Z,8.16
2023-02-22T13:42:04.767Z,8.14
2023-02-22T13:43:08.956Z,8.11
2023-02-22T13:44:13.229Z,8.12
2023-02-22T13:45:17.445Z,8.15
2023-02-22T13:46:21.827Z,8.18
2023-02-22T13:47:25.932Z,8.17
2023-02-22T13:48:31.167Z,8.14
2023-02-22T13:49:35.065Z,8.13
2023-02-22T13:50:39.270Z,8.14
2023-02-22T13:51:43.547Z,8.16
2023-02-22T13:52:47.879Z,8.14
2023-02-22T13:53:52.160Z,8.13
2023-02-22T13:54:56.376Z,8.16
2023-02-22T13:56:00.587Z,8.19
2023-02-22T13:57:04.816Z,8.18
2023-02-22T13:58:09.191Z,8.18
2023-02-22T13:59:13.389Z,8.10
2023-02-22T14:00:17.614Z,8.06
2023-02-22T14:01:21.940Z,8.07
2023-02-22T14:02:26.165Z,8.11
2023-02-22T14:03:30.311Z,8.13
2023-02-22T14:04:34.537Z,8.16
2023-02-22T14:05:38.818Z,8.18
2023-02-22T14:06:43.000Z,8.21
2023-02-22T14:07:47.160Z,8.23
2023-02-22T14:08:51.459Z,8.19
2023-02-22T14:09:55.683Z,8.17
2023-02-22T14:11:00.029Z,8.18
2023-02-22T14:12:04.367Z,8.19
2023-02-22T14:13:08.538Z,8.20
2023-02-22T14:14:12.893Z,8.19
2023-02-22T14:15:30.720Z,8.16
2023-02-22T14:16:21.379Z,8.11
2023-02-22T14:17:25.547Z,8.10
2023-02-22T14:18:29.796Z,8.07
2023-02-22T14:19:34.001Z,8.07
2023-02-22T14:20:38.299Z,8.05
2023-02-22T14:21:42.493Z,8.04
2023-02-22T14:22:48.094Z,8.02
2023-02-22T14:23:50.956Z,7.99
2023-02-22T14:24:55.288Z,7.98
2023-02-22T14:25:59.517Z,7.99
2023-02-22T14:27:03.746Z,7.97